Time;durP1;ratioP1;P1;durP2;ratioP2;P2;SDS_P1;SDS_P2;PMS_P1;PMS_P2;Temp;Humidity;BMP_temperature;BMP_pressure;BME280_temperature;BME280_humidity;BME280_pressure;Samples;Min_cycle;Max_cycle;Signal;HPM_P1;HPM_P2
2021/08/06 00:00:37;;;;;;;5.28;3.50;;;20.60;88.50;;;;;;4990620;28;20027;-88
2021/08/06 00:03:03;;;;;;;6.57;3.50;;;20.60;88.80;;;;;;4992437;28;20034;-87
2021/08/06 00:05:29;;;;;;;6.90;3.60;;;20.60;88.90;;;;;;4993777;28;20034;-88
2021/08/06 00:07:55;;;;;;;5.00;3.55;;;20.60;89.30;;;;;;4980080;28;20809;-88
2021/08/06 00:10:20;;;;;;;4.13;2.95;;;20.60;88.90;;;;;;4994734;28;20466;-89
2021/08/06 00:12:46;;;;;;;4.72;3.22;;;20.60;89.20;;;;;;5015938;28;20515;-89
2021/08/06 00:15:11;;;;;;;4.75;3.00;;;20.60;89.20;;;;;;5003681;28;20069;-88
2021/08/06 00:17:40;;;;;;;5.88;3.30;;;20.60;89.40;;;;;;4963063;28;20046;-88
2021/08/06 00:20:08;;;;;;;4.45;2.92;;;20.60;89.50;;;;;;4957646;28;20022;-88
2021/08/06 00:22:34;;;;;;;4.72;3.35;;;20.60;89.40;;;;;;5010313;28;20024;-87
2021/08/06 00:25:00;;;;;;;5.28;3.25;;;20.60;89.60;;;;;;4999767;28;20046;-88
2021/08/06 00:27:25;;;;;;;5.05;3.00;;;20.60;89.90;;;;;;5013736;28;20505;-88
2021/08/06 00:29:51;;;;;;;4.97;3.17;;;20.60;90.00;;;;;;4976320;28;20073;-89
2021/08/06 00:32:17;;;;;;;4.72;3.05;;;20.60;90.00;;;;;;4996162;28;20033;-88
2021/08/06 00:34:42;;;;;;;5.07;3.53;;;20.60;90.00;;;;;;4996795;28;20032;-88
2021/08/06 00:37:08;;;;;;;3.90;3.08;;;20.60;90.00;;;;;;5014974;28;20025;-89
2021/08/06 00:39:34;;;;;;;3.47;2.60;;;20.60;90.10;;;;;;4997563;28;20028;-89
2021/08/06 00:42:05;;;;;;;3.83;2.78;;;20.60;90.10;;;;;;4989825;28;20030;-88
2021/08/06 00:44:31;;;;;;;4.25;2.90;;;20.50;90.10;;;;;;5000504;28;20009;-88
2021/08/06 00:46:57;;;;;;;3.83;2.92;;;20.50;90.10;;;;;;5015337;28;20026;-88
2021/08/06 00:49:22;;;;;;;3.70;2.85;;;20.50;90.20;;;;;;5005622;28;20455;-87
2021/08/06 00:51:48;;;;;;;4.13;2.78;;;20.50;90.40;;;;;;5011488;28;20120;-88
2021/08/06 00:54:18;;;;;;;4.72;2.92;;;20.40;90.40;;;;;;4999013;28;20029;-88
2021/08/06 00:56:48;;;;;;;3.30;2.58;;;20.40;90.30;;;;;;5031577;28;20039;-88
2021/08/06 00:59:14;;;;;;;4.72;2.63;;;20.40;90.40;;;;;;5015389;28;20185;-88
2021/08/06 01:01:45;;;;;;;4.10;2.92;;;20.40;90.50;;;;;;4982618;28;20037;-88
2021/08/06 01:04:21;;;;;;;3.85;2.65;;;20.30;90.60;;;;;;5010344;28;20026;-88
2021/08/06 01:06:59;;;;;;;5.68;2.75;;;20.30;90.60;;;;;;5026520;28;20022;-89
2021/08/06 01:09:29;;;;;;;3.88;2.72;;;20.30;90.80;;;;;;4983341;28;20029;-88
2021/08/06 01:11:58;;;;;;;;;;;20.30;90.80;;;;;;5010007;28;20052;-88
2021/08/06 01:14:26;;;;;;;4.35;2.67;;;20.20;90.90;;;;;;5018186;28;19908;-89
2021/08/06 01:16:57;;;;;;;4.45;2.72;;;20.20;90.90;;;;;;5018670;28;20026;-88
2021/08/06 01:19:36;;;;;;;3.58;2.70;;;20.20;91.00;;;;;;4999205;28;20438;-88
2021/08/06 01:22:22;;;;;;;3.65;2.60;;;20.20;91.20;;;;;;4995455;28;20066;-88
2021/08/06 01:25:01;;;;;;;5.68;2.92;;;20.20;91.10;;;;;;4983168;28;20121;-88
2021/08/06 01:27:31;;;;;;;5.70;2.80;;;20.20;91.10;;;;;;4983605;28;20069;-88
2021/08/06 01:29:57;;;;;;;6.20;2.80;;;20.10;91.30;;;;;;4963328;28;20027;-89
2021/08/06 01:32:27;;;;;;;4.53;2.80;;;20.10;91.30;;;;;;4963789;28;20022;-88
2021/08/06 01:34:53;;;;;;;4.38;2.90;;;20.00;91.40;;;;;;4963644;28;20356;-89
2021/08/06 01:37:21;;;;;;;7.13;3.00;;;20.00;91.40;;;;;;4994109;28;20036;-88
2021/08/06 01:39:47;;;;;;;4.72;3.03;;;20.00;91.50;;;;;;4994294;28;20064;-88
2021/08/06 01:42:30;;;;;;;3.65;2.80;;;19.90;91.50;;;;;;4962519;28;20495;-88
2021/08/06 01:44:56;;;;;;;4.00;2.80;;;19.90;91.70;;;;;;4978834;28;20030;-88
2021/08/06 01:47:26;;;;;;;4.47;2.95;;;19.80;91.70;;;;;;4965617;28;20034;-88
2021/08/06 01:49:57;;;;;;;4.18;2.80;;;19.80;91.70;;;;;;4998483;28;20824;-86
2021/08/06 01:52:30;;;;;;;4.40;2.80;;;19.80;91.80;;;;;;4998713;28;20411;-87
2021/08/06 01:54:59;;;;;;;5.75;2.92;;;19.70;91.80;;;;;;4990233;28;20041;-88
2021/08/06 01:57:27;;;;;;;4.05;2.70;;;19.70;91.80;;;;;;4981310;28;20519;-88
2021/08/06 01:59:54;;;;;;;3.35;2.60;;;19.70;91.90;;;;;;4982508;28;20022;-88
2021/08/06 02:02:20;;;;;;;3.67;2.70;;;19.60;91.90;;;;;;4998320;28;20084;-88
2021/08/06 02:04:47;;;;;;;5.32;2.67;;;19.60;91.90;;;;;;4982582;28;20022;-88
2021/08/06 02:07:17;;;;;;;4.55;2.85;;;19.70;92.00;;;;;;4998826;28;20017;-88
2021/08/06 02:09:44;;;;;;;3.42;2.33;;;19.70;91.80;;;;;;4966193;28;20045;-88
2021/08/06 02:12:11;;;;;;;4.90;3.08;;;19.70;91.70;;;;;;5005699;28;20053;-88
2021/08/06 02:14:37;;;;;;;4.97;2.40;;;19.70;91.70;;;;;;4981206;28;20014;-88
2021/08/06 02:17:03;;;;;;;7.10;3.45;;;19.70;91.70;;;;;;4982369;28;20045;-89
2021/08/06 02:19:30;;;;;;;5.18;3.05;;;19.70;92.00;;;;;;4982552;28;20033;-89
2021/08/06 02:21:58;;;;;;;5.78;2.92;;;19.60;92.30;;;;;;4982584;28;20072;-88
2021/08/06 02:24:26;;;;;;;4.75;2.75;;;19.60;92.50;;;;;;5015425;28;20042;-88
2021/08/06 02:26:55;;;;;;;4.95;2.45;;;19.50;92.50;;;;;;4998089;28;20464;-87
2021/08/06 02:29:25;;;;;;;4.30;2.47;;;19.50;92.60;;;;;;4987689;28;20026;-88
2021/08/06 02:31:52;;;;;;;5.40;2.95;;;19.50;92.60;;;;;;4982440;28;20104;-88
2021/08/06 02:34:21;;;;;;;3.50;2.45;;;19.50;92.70;;;;;;4998570;28;20056;-87
2021/08/06 02:36:47;;;;;;;3.85;2.55;;;19.50;92.60;;;;;;4998292;28;20084;-88
2021/08/06 02:39:23;;;;;;;4.38;2.47;;;19.50;92.80;;;;;;4988995;28;20026;-88
2021/08/06 02:41:49;;;;;;;4.35;2.75;;;19.50;92.60;;;;;;4996330;28;20061;-88
2021/08/06 02:44:16;;;;;;;3.17;2.45;;;19.50;92.70;;;;;;5021133;28;20076;-87
2021/08/06 02:46:42;;;;;;;4.90;2.60;;;19.60;92.60;;;;;;5025092;28;20101;-87
2021/08/06 02:49:08;;;;;;;3.97;2.70;;;19.60;92.60;;;;;;4990754;28;20046;-88
2021/08/06 02:51:34;;;;;;;4.20;2.55;;;19.60;92.60;;;;;;5022548;28;20022;-89
2021/08/06 02:54:00;;;;;;;3.90;2.30;;;19.60;92.50;;;;;;4993898;28;20023;-87
2021/08/06 02:56:26;;;;;;;3.20;2.70;;;19.60;92.50;;;;;;4970551;28;20481;-88
2021/08/06 02:58:51;;;;;;;3.83;2.35;;;19.60;92.60;;;;;;4963730;28;20100;-87
2021/08/06 03:01:17;;;;;;;3.42;2.30;;;19.50;92.50;;;;;;4985086;28;20104;-88
2021/08/06 03:03:43;;;;;;;3.53;2.70;;;19.60;92.70;;;;;;4984340;28;20037;-88
2021/08/06 03:06:11;;;;;;;4.07;2.85;;;19.50;92.60;;;;;;5014031;28;20036;-87
2021/08/06 03:08:37;;;;;;;5.10;2.83;;;19.50;92.70;;;;;;4985111;28;20026;-88
2021/08/06 03:11:05;;;;;;;4.80;3.10;;;19.50;92.70;;;;;;4960198;28;20110;-88
2021/08/06 03:13:30;;;;;;;3.58;2.75;;;19.50;92.70;;;;;;4975496;28;20022;-88
2021/08/06 03:15:56;;;;;;;4.32;2.88;;;19.50;92.80;;;;;;4974328;28;20033;-88
2021/08/06 03:18:22;;;;;;;4.43;2.67;;;19.50;92.90;;;;;;4961059;28;20117;-88
2021/08/06 03:20:47;;;;;;;5.05;2.80;;;19.40;92.90;;;;;;4991940;28;20084;-86
2021/08/06 03:23:13;;;;;;;4.07;2.75;;;19.40;92.90;;;;;;4978405;28;20037;-88
2021/08/06 03:25:39;;;;;;;4.15;2.53;;;19.30;92.80;;;;;;4997343;28;20026;-87
2021/08/06 03:28:04;;;;;;;3.75;2.33;;;19.40;92.90;;;;;;4995114;28;20034;-88
2021/08/06 03:30:32;;;;;;;5.30;2.72;;;19.30;92.90;;;;;;4996303;28;20168;-88
2021/08/06 03:32:58;;;;;;;4.43;2.70;;;19.30;92.90;;;;;;4995971;28;20040;-88
2021/08/06 03:35:24;;;;;;;3.88;2.60;;;19.30;92.90;;;;;;4996330;28;20094;-88
2021/08/06 03:37:51;;;;;;;3.63;2.47;;;19.30;93.00;;;;;;5013241;28;20014;-87
2021/08/06 03:40:17;;;;;;;5.32;2.50;;;19.30;92.90;;;;;;4995694;28;20491;-88
2021/08/06 03:42:42;;;;;;;3.55;2.45;;;19.30;93.00;;;;;;4996511;28;20093;-88
2021/08/06 03:45:09;;;;;;;4.45;2.63;;;19.40;93.10;;;;;;4960633;28;20014;-89
2021/08/06 03:47:35;;;;;;;5.07;2.90;;;19.40;93.00;;;;;;4996365;28;20157;-88
2021/08/06 03:50:01;;;;;;;4.53;3.00;;;19.40;93.20;;;;;;4995712;28;20017;-87
2021/08/06 03:52:27;;;;;;;3.78;2.58;;;19.30;93.10;;;;;;4996108;28;20021;-88
2021/08/06 03:54:52;;;;;;;4.57;2.85;;;19.30;93.30;;;;;;4979548;28;20034;-89
2021/08/06 03:57:18;;;;;;;6.22;2.95;;;19.30;93.40;;;;;;4979765;28;20382;-89
2021/08/06 03:59:44;;;;;;;3.83;2.85;;;19.30;93.60;;;;;;4979767;28;20030;-89
2021/08/06 04:02:09;;;;;;;6.38;3.05;;;19.20;93.70;;;;;;4995929;28;20034;-87
2021/08/06 04:04:35;;;;;;;4.35;2.88;;;19.20;93.90;;;;;;4979669;28;20033;-88
2021/08/06 04:07:01;;;;;;;3.08;2.38;;;19.10;94.00;;;;;;5013346;28;20018;-89
2021/08/06 04:09:26;;;;;;;3.47;2.40;;;19.10;94.20;;;;;;4996755;28;20021;-89
2021/08/06 04:11:52;;;;;;;3.42;1.92;;;19.00;94.70;;;;;;4997130;28;20021;-90
2021/08/06 04:14:18;;;;;;;2.65;2.00;;;18.90;94.90;;;;;;4997112;28;20029;-91
2021/08/06 04:16:44;;;;;;;2.83;2.10;;;18.80;95.20;;;;;;4997489;28;20030;-92
2021/08/06 04:19:10;;;;;;;3.88;2.17;;;18.80;95.40;;;;;;4996572;28;20053;-91
2021/08/06 04:21:35;;;;;;;4.63;2.33;;;18.70;95.60;;;;;;4997188;28;20037;-90
2021/08/06 04:24:01;;;;;;;3.85;2.25;;;18.70;95.90;;;;;;4996913;28;20050;-93
2021/08/06 04:26:27;;;;;;;4.97;2.10;;;18.70;96.00;;;;;;4997074;28;20042;-92
2021/08/06 04:28:52;;;;;;;3.25;2.10;;;18.60;96.00;;;;;;4980498;28;20075;-91
2021/08/06 04:31:21;;;;;;;3.17;2.47;;;18.70;96.00;;;;;;4964349;28;20034;-92
2021/08/06 04:33:46;;;;;;;3.42;2.47;;;18.70;96.00;;;;;;4997487;28;20029;-92
2021/08/06 04:36:12;;;;;;;5.25;2.50;;;18.70;96.10;;;;;;4980698;28;20117;-92
2021/08/06 04:38:38;;;;;;;3.30;2.10;;;18.70;96.00;;;;;;4996660;28;20148;-92
2021/08/06 04:41:03;;;;;;;3.35;2.10;;;18.70;96.20;;;;;;4996301;28;20033;-92
2021/08/06 04:43:29;;;;;;;4.03;2.40;;;18.70;96.20;;;;;;4976989;28;20026;-92
2021/08/06 04:45:55;;;;;;;2.75;1.98;;;18.70;96.30;;;;;;4996716;28;20409;-93
2021/08/06 04:48:25;;;;;;;3.35;2.20;;;18.70;96.20;;;;;;4996546;28;20044;-92
2021/08/06 04:50:51;;;;;;;3.35;2.47;;;18.70;96.20;;;;;;4995836;28;20017;-92
2021/08/06 04:53:16;;;;;;;2.80;2.20;;;18.70;96.10;;;;;;4996884;28;20032;-93
2021/08/06 04:55:42;;;;;;;3.80;2.30;;;18.70;96.20;;;;;;4990667;28;20015;-92
2021/08/06 04:58:11;;;;;;;2.75;2.20;;;18.70;96.20;;;;;;4972389;28;20117;-92
2021/08/06 05:00:36;;;;;;;4.75;2.40;;;18.70;96.20;;;;;;4996801;28;20034;-92
2021/08/06 05:03:02;;;;;;;3.22;2.47;;;18.70;96.20;;;;;;4997621;28;20037;-91
2021/08/06 05:05:28;;;;;;;4.20;2.65;;;18.70;96.20;;;;;;4997497;28;20064;-93
2021/08/06 05:07:55;;;;;;;2.80;1.92;;;18.70;96.30;;;;;;4999151;28;20022;-92
2021/08/06 05:10:27;;;;;;;3.58;2.50;;;18.70;96.30;;;;;;4989103;28;20029;-92
2021/08/06 05:12:53;;;;;;;3.47;2.42;;;18.70;96.40;;;;;;5028494;28;20077;-92
2021/08/06 05:15:20;;;;;;;3.15;2.35;;;18.70;96.40;;;;;;5013867;28;20022;-90
2021/08/06 05:17:46;;;;;;;2.85;1.88;;;18.70;96.30;;;;;;4980461;28;20116;-91
2021/08/06 05:20:13;;;;;;;3.20;2.10;;;18.70;96.40;;;;;;4966744;28;20053;-92
2021/08/06 05:22:38;;;;;;;3.70;2.17;;;18.70;96.50;;;;;;4996273;28;20028;-90
2021/08/06 05:25:04;;;;;;;3.40;2.25;;;18.70;96.70;;;;;;4975745;28;20125;-90
2021/08/06 05:27:30;;;;;;;3.50;2.38;;;18.70;96.60;;;;;;4984887;28;20053;-92
2021/08/06 05:29:59;;;;;;;3.35;2.20;;;18.70;96.50;;;;;;5015304;28;20034;-91
2021/08/06 05:32:27;;;;;;;3.85;2.50;;;18.70;96.60;;;;;;4982018;28;20021;-92
2021/08/06 05:34:53;;;;;;;3.88;2.00;;;18.70;96.60;;;;;;4996822;28;20068;-92
2021/08/06 05:37:19;;;;;;;3.47;2.17;;;18.70;96.70;;;;;;5013612;28;20462;-91
2021/08/06 05:39:44;;;;;;;2.88;2.00;;;18.70;96.80;;;;;;4996790;28;20054;-91
2021/08/06 05:42:10;;;;;;;2.58;1.88;;;18.70;96.80;;;;;;4988001;28;20042;-90
2021/08/06 05:44:36;;;;;;;3.47;2.33;;;18.70;96.80;;;;;;5022004;28;20034;-91
2021/08/06 05:47:04;;;;;;;3.00;2.10;;;18.70;96.80;;;;;;5027293;28;20033;-91
2021/08/06 05:49:30;;;;;;;4.47;2.25;;;18.60;96.80;;;;;;5015148;28;20101;-91
2021/08/06 05:51:56;;;;;;;4.93;2.78;;;18.70;96.80;;;;;;5017608;28;20060;-90
2021/08/06 05:54:24;;;;;;;3.47;2.20;;;18.70;97.00;;;;;;4984821;28;20104;-90
2021/08/06 05:56:49;;;;;;;4.60;2.25;;;18.60;97.00;;;;;;4996380;28;20454;-89
2021/08/06 05:59:15;;;;;;;3.55;2.35;;;18.60;97.00;;;;;;4995226;28;20022;-91
2021/08/06 06:01:41;;;;;;;3.50;2.30;;;18.60;97.10;;;;;;4995054;28;20030;-91
2021/08/06 06:04:06;;;;;;;3.97;2.40;;;18.60;97.30;;;;;;5015699;28;20064;-90
2021/08/06 06:06:33;;;;;;;3.85;2.60;;;18.60;97.30;;;;;;4982844;28;20022;-91
2021/08/06 06:08:59;;;;;;;4.13;3.00;;;18.60;97.40;;;;;;4999947;28;20113;-91
2021/08/06 06:11:25;;;;;;;4.80;2.20;;;18.60;97.50;;;;;;5015421;28;20121;-89
2021/08/06 06:13:51;;;;;;;3.95;2.50;;;18.60;97.70;;;;;;4999189;28;20080;-91
2021/08/06 06:16:17;;;;;;;3.65;2.50;;;18.50;97.80;;;;;;4998544;28;20034;-91
2021/08/06 06:18:42;;;;;;;3.80;2.80;;;18.50;97.90;;;;;;5015582;28;20041;-93
2021/08/06 06:21:16;;;;;;;3.95;2.63;;;18.50;97.90;;;;;;4999321;28;20026;-94
2021/08/06 06:23:53;;;;;;;4.90;3.05;;;18.60;98.20;;;;;;5001305;28;20125;-94
2021/08/06 06:26:22;;;;;;;3.33;2.20;;;18.50;98.10;;;;;;4999398;28;20064;-94
2021/08/06 06:28:47;;;;;;;4.88;2.33;;;18.50;98.30;;;;;;5021678;28;20017;-94
2021/08/06 06:31:13;;;;;;;5.20;2.50;;;18.50;98.40;;;;;;5016249;28;20126;-93
2021/08/06 06:33:41;;;;;;;3.25;2.63;;;18.50;98.40;;;;;;4998833;28;20027;-93
2021/08/06 06:36:10;;;;;;;2.95;2.35;;;18.50;98.50;;;;;;4998895;28;20076;-94
2021/08/06 06:38:36;;;;;;;3.88;2.38;;;18.50;98.60;;;;;;4999081;28;20050;-94
2021/08/06 06:41:02;;;;;;;3.90;2.28;;;18.50;98.60;;;;;;4981881;28;20414;-92
2021/08/06 06:43:27;;;;;;;3.10;2.22;;;18.50;98.80;;;;;;4979778;28;20504;-91
2021/08/06 06:45:53;;;;;;;3.53;2.10;;;18.50;98.70;;;;;;4997320;28;20022;-92
2021/08/06 06:48:19;;;;;;;3.42;2.17;;;18.50;98.70;;;;;;4997024;28;20545;-92
2021/08/06 06:50:45;;;;;;;3.63;2.35;;;18.60;98.70;;;;;;5007170;28;20413;-94
2021/08/06 06:53:11;;;;;;;3.72;2.00;;;18.50;98.50;;;;;;5004784;28;20033;-93
2021/08/06 06:55:36;;;;;;;3.78;2.35;;;18.60;98.60;;;;;;5013772;28;20017;-95
2021/08/06 06:58:02;;;;;;;3.42;2.40;;;18.60;98.70;;;;;;4999204;28;20022;-94
2021/08/06 07:00:30;;;;;;;3.97;2.72;;;18.60;98.80;;;;;;4980431;28;20117;-92
2021/08/06 07:02:56;;;;;;;4.35;2.78;;;18.60;98.90;;;;;;5013929;28;20029;-94
2021/08/06 07:05:24;;;;;;;5.57;2.70;;;18.60;99.00;;;;;;4992222;28;20026;-93
2021/08/06 07:07:56;;;;;;;3.97;2.78;;;18.60;99.00;;;;;;4977741;28;20065;-92
2021/08/06 07:10:21;;;;;;;3.83;2.70;;;18.70;99.00;;;;;;5004421;28;20037;-94
2021/08/06 07:12:49;;;;;;;4.40;2.92;;;18.70;98.90;;;;;;5010938;28;20061;-94
2021/08/06 07:15:15;;;;;;;4.60;3.20;;;18.80;99.00;;;;;;4996197;28;20441;-92
2021/08/06 07:17:42;;;;;;;5.47;3.40;;;18.80;99.10;;;;;;4966549;28;20023;-91
2021/08/06 07:20:13;;;;;;;5.22;4.00;;;18.80;99.00;;;;;;4964916;28;20040;-90
2021/08/06 07:22:39;;;;;;;5.15;4.00;;;18.90;99.10;;;;;;4996926;28;20106;-91
2021/08/06 07:25:07;;;;;;;5.47;3.72;;;18.90;98.90;;;;;;5014166;28;20041;-94
2021/08/06 07:27:35;;;;;;;5.10;3.67;;;18.90;98.90;;;;;;5003922;28;20032;-90
2021/08/06 07:30:01;;;;;;;4.15;3.47;;;18.90;98.80;;;;;;4965097;28;20475;-93
2021/08/06 07:32:27;;;;;;;5.88;3.92;;;18.90;98.70;;;;;;4981160;28;20033;-90
2021/08/06 07:34:52;;;;;;;4.35;3.70;;;18.90;98.60;;;;;;4981654;28;20026;-92
2021/08/06 07:37:18;;;;;;;5.45;3.97;;;18.90;98.70;;;;;;4984810;28;20026;-92
2021/08/06 07:39:44;;;;;;;5.32;3.72;;;18.90;98.50;;;;;;4984265;28;20078;-90
2021/08/06 07:42:09;;;;;;;4.60;3.70;;;18.90;98.50;;;;;;4967921;28;20459;-92
2021/08/06 07:44:38;;;;;;;5.30;3.80;;;18.90;98.60;;;;;;4951308;28;20426;-94
2021/08/06 07:47:04;;;;;;;5.53;3.75;;;18.90;98.50;;;;;;4975129;28;20015;-95
2021/08/06 07:49:30;;;;;;;5.05;3.95;;;18.90;98.50;;;;;;4977436;28;20026;-93
2021/08/06 07:51:56;;;;;;;5.07;4.45;;;18.90;98.60;;;;;;4977236;28;20041;-93
2021/08/06 07:54:25;;;;;;;5.82;4.85;;;18.90;98.60;;;;;;5015767;28;20525;-96
2021/08/06 07:56:50;;;;;;;5.93;5.18;;;18.90;98.60;;;;;;4981790;28;20084;-94
2021/08/06 07:59:19;;;;;;;6.63;5.00;;;18.90;98.60;;;;;;4983214;28;20025;-94
2021/08/06 08:01:47;;;;;;;8.82;6.15;;;18.90;98.60;;;;;;5001436;28;20076;-94
2021/08/06 08:04:13;;;;;;;6.43;4.80;;;18.90;98.40;;;;;;4995628;28;20133;-91
2021/08/06 08:06:39;;;;;;;5.97;4.60;;;19.00;98.30;;;;;;4968965;28;20081;-92
2021/08/06 08:09:08;;;;;;;5.63;4.18;;;19.00;98.20;;;;;;4992249;28;20022;-94
2021/08/06 08:11:33;;;;;;;8.32;6.10;;;19.00;98.10;;;;;;4997665;28;20041;-91
2021/08/06 08:14:04;;;;;;;8.13;5.50;;;19.00;97.90;;;;;;4955968;28;20018;-91
2021/08/06 08:16:30;;;;;;;5.40;4.45;;;19.00;97.90;;;;;;4984011;28;20025;-92
2021/08/06 08:18:58;;;;;;;6.43;4.32;;;19.00;97.80;;;;;;4997033;28;20042;-92
2021/08/06 08:21:24;;;;;;;6.72;4.95;;;19.00;97.80;;;;;;4977661;28;20034;-92
2021/08/06 08:23:50;;;;;;;6.35;4.70;;;19.00;97.60;;;;;;4969471;28;20100;-92
2021/08/06 08:26:16;;;;;;;6.22;4.60;;;19.00;97.30;;;;;;4988678;28;20022;-91
2021/08/06 08:28:42;;;;;;;7.28;4.78;;;19.00;97.20;;;;;;4954084;28;20035;-91
2021/08/06 08:31:07;;;;;;;7.65;4.78;;;19.10;97.00;;;;;;4993846;28;20026;-89
2021/08/06 08:33:33;;;;;;;9.63;5.10;;;19.00;96.40;;;;;;4984877;28;20168;-91
2021/08/06 08:35:59;;;;;;;6.97;4.78;;;19.00;96.60;;;;;;4979954;28;20019;-92
2021/08/06 08:38:27;;;;;;;6.57;4.28;;;19.00;96.50;;;;;;4962857;28;20077;-92
2021/08/06 08:40:55;;;;;;;8.23;4.47;;;19.00;96.60;;;;;;4961400;28;20113;-92
2021/08/06 08:43:21;;;;;;;8.60;4.50;;;19.00;96.80;;;;;;4983421;28;20010;-91
2021/08/06 08:45:47;;;;;;;6.80;4.47;;;19.00;96.80;;;;;;4983720;28;20026;-91
2021/08/06 08:48:16;;;;;;;7.05;4.13;;;19.10;96.80;;;;;;4982512;28;20520;-91
2021/08/06 08:50:44;;;;;;;6.72;4.65;;;19.10;96.80;;;;;;4989230;28;20416;-91
2021/08/06 08:53:13;;;;;;;5.55;3.75;;;19.10;96.80;;;;;;4977277;28;20026;-90
2021/08/06 08:55:38;;;;;;;4.97;4.07;;;19.20;96.70;;;;;;4967907;28;20482;-90
2021/08/06 08:58:07;;;;;;;5.85;3.55;;;19.20;96.70;;;;;;4971964;28;20193;-90
2021/08/06 09:00:34;;;;;;;6.88;4.10;;;19.30;96.40;;;;;;4958746;28;20121;-91
2021/08/06 09:02:59;;;;;;;7.32;4.40;;;19.30;96.50;;;;;;4973951;28;20022;-90
2021/08/06 09:05:26;;;;;;;8.18;3.90;;;19.40;97.00;;;;;;4947348;28;20022;-91
2021/08/06 09:07:53;;;;;;;6.15;4.25;;;19.50;96.70;;;;;;4987664;28;20011;-93
2021/08/06 09:10:27;;;;;;;8.90;4.40;;;19.50;96.30;;;;;;4983139;28;20536;-92
2021/08/06 09:12:59;;;;;;;6.93;4.60;;;19.50;96.10;;;;;;4995155;28;20463;-93
2021/08/06 09:15:47;;;;;;;7.30;3.72;;;19.60;96.00;;;;;;4984575;28;20026;-93
2021/08/06 09:18:37;;;;;;;5.15;2.92;;;19.60;94.80;;;;;;4964445;28;20046;-91
2021/08/06 09:21:15;;;;;;;5.97;3.13;;;19.70;94.30;;;;;;4994110;28;20031;-91
2021/08/06 09:23:46;;;;;;;6.43;3.00;;;19.80;94.60;;;;;;4976677;28;20023;-92
2021/08/06 09:26:30;;;;;;;6.88;3.17;;;19.90;94.60;;;;;;4981221;28;20080;-90
2021/08/06 09:29:19;;;;;;;5.45;2.80;;;19.90;93.90;;;;;;5013109;28;20545;-91
2021/08/06 09:31:51;;;;;;;3.63;2.80;;;20.00;94.00;;;;;;4971209;28;20117;-91
2021/08/06 09:34:25;;;;;;;7.13;2.80;;;20.00;93.80;;;;;;4993506;28;20022;-91
2021/08/06 09:37:14;;;;;;;3.85;2.63;;;20.10;94.00;;;;;;4982153;28;20043;-93
2021/08/06 09:39:48;;;;;;;5.78;2.90;;;20.10;94.00;;;;;;4995427;28;20023;-91
2021/08/06 09:42:25;;;;;;;4.93;2.60;;;20.20;94.10;;;;;;4988690;28;20026;-91
2021/08/06 09:45:13;;;;;;;5.22;2.70;;;20.20;94.30;;;;;;4987061;28;20065;-91
2021/08/06 09:47:45;;;;;;;4.15;2.30;;;20.30;93.70;;;;;;4990726;28;20094;-91
2021/08/06 09:50:20;;;;;;;5.15;2.40;;;20.40;92.90;;;;;;4996182;28;20026;-91
2021/08/06 09:52:49;;;;;;;2.80;1.90;;;20.40;93.40;;;;;;4984203;28;20019;-90
2021/08/06 09:55:49;;;;;;;4.65;1.88;;;20.50;92.90;;;;;;4997321;28;20026;-89
2021/08/06 09:58:18;;;;;;;4.93;2.03;;;20.60;92.20;;;;;;4964995;28;20487;-92
2021/08/06 10:00:47;;;;;;;5.03;2.10;;;20.60;92.50;;;;;;4996304;28;20080;-92
2021/08/06 10:03:49;;;;;;;4.57;2.00;;;20.70;91.60;;;;;;4994939;28;20030;-91
2021/08/06 10:06:15;;;;;;;;;;;20.80;91.40;;;;;;4919040;29;20056;-92
2021/08/06 10:08:42;;;;;;;5.38;1.80;;;20.80;91.30;;;;;;4978432;28;19902;-91
2021/08/06 10:11:09;;;;;;;3.78;2.08;;;20.80;91.30;;;;;;4970045;28;20382;-94
2021/08/06 10:13:36;;;;;;;3.15;1.80;;;20.90;91.10;;;;;;4990140;28;20029;-91
2021/08/06 10:16:02;;;;;;;5.88;2.00;;;20.80;90.30;;;;;;4997868;28;20040;-91
2021/08/06 10:18:28;;;;;;;5.68;2.00;;;20.80;90.10;;;;;;4988582;28;20101;-94
2021/08/06 10:20:53;;;;;;;3.13;1.83;;;20.80;90.30;;;;;;4988807;28;20026;-91
2021/08/06 10:23:19;;;;;;;5.25;2.20;;;20.70;90.20;;;;;;4970772;28;20114;-91
2021/08/06 10:25:46;;;;;;;3.03;1.60;;;20.70;90.40;;;;;;5008945;28;20135;-91
2021/08/06 10:28:14;;;;;;;4.57;1.70;;;20.60;90.80;;;;;;4996931;28;20023;-91
2021/08/06 10:30:40;;;;;;;4.20;2.03;;;20.60;90.90;;;;;;4976572;28;20104;-91
2021/08/06 10:33:08;;;;;;;3.75;1.75;;;20.60;91.00;;;;;;4998057;28;20018;-92
2021/08/06 10:36:04;;;;;;;5.43;2.00;;;20.70;91.10;;;;;;4982409;28;20074;-91
2021/08/06 10:38:42;;;;;;;6.57;2.45;;;20.70;91.30;;;;;;4977855;28;20454;-91
2021/08/06 10:41:14;;;;;;;7.13;1.80;;;20.70;91.50;;;;;;4985115;28;20026;-92
2021/08/06 10:43:47;;;;;;;4.78;1.98;;;20.80;90.30;;;;;;4993932;28;20034;-92
2021/08/06 10:46:16;;;;;;;4.32;1.80;;;20.80;90.60;;;;;;4976872;28;20018;-91
2021/08/06 10:48:47;;;;;;;3.80;1.92;;;20.80;91.10;;;;;;4994118;28;20041;-91
2021/08/06 10:51:17;;;;;;;5.53;1.60;;;20.80;90.50;;;;;;4977880;28;20014;-91
2021/08/06 10:54:09;;;;;;;3.47;1.80;;;20.80;90.90;;;;;;4996118;28;20072;-90
2021/08/06 10:56:39;;;;;;;5.20;1.65;;;20.90;90.50;;;;;;4975336;28;20441;-91
2021/08/06 10:59:11;;;;;;;3.97;1.92;;;21.00;90.80;;;;;;4978684;28;20042;-90
2021/08/06 11:01:48;;;;;;;3.92;2.00;;;21.00;90.20;;;;;;4981768;28;20042;-89
2021/08/06 11:04:14;;;;;;;3.00;1.77;;;21.10;90.30;;;;;;4993617;28;20028;-90
2021/08/06 11:06:48;;;;;;;5.72;1.83;;;21.10;90.50;;;;;;4977490;28;20062;-91
2021/08/06 11:09:26;;;;;;;4.80;1.90;;;21.10;91.00;;;;;;4984560;28;20030;-94
2021/08/06 11:12:00;;;;;;;3.42;1.88;;;21.00;90.90;;;;;;4978085;28;20557;-90
2021/08/06 11:14:29;;;;;;;6.38;2.10;;;21.00;91.20;;;;;;4977852;28;20470;-90
2021/08/06 11:17:15;;;;;;;2.45;1.60;;;21.00;91.60;;;;;;4994776;28;20030;-91
2021/08/06 11:19:44;;;;;;;2.80;1.27;;;21.00;90.50;;;;;;4977127;28;20029;-91
2021/08/06 11:22:16;;;;;;;2.90;1.30;;;21.00;89.80;;;;;;4994869;28;20069;-90
2021/08/06 11:24:52;;;;;;;2.90;1.23;;;21.00;88.90;;;;;;4984864;28;20546;-91
2021/08/06 11:27:32;;;;;;;2.90;1.70;;;21.00;89.30;;;;;;4996656;28;20026;-92
2021/08/06 11:30:10;;;;;;;2.38;1.40;;;21.20;90.20;;;;;;4996482;28;20022;-91
2021/08/06 11:32:58;;;;;;;1.85;1.30;;;21.20;90.30;;;;;;4995963;28;20022;-91
2021/08/06 11:35:31;;;;;;;3.58;1.65;;;21.40;90.40;;;;;;5001779;28;20021;-90
2021/08/06 11:38:02;;;;;;;2.75;1.60;;;21.50;90.20;;;;;;5014397;28;20018;-90
2021/08/06 11:40:33;;;;;;;3.80;1.70;;;21.70;89.50;;;;;;5013864;28;20104;-92
2021/08/06 11:43:19;;;;;;;2.63;1.65;;;21.80;87.80;;;;;;4980883;28;20566;-91
2021/08/06 11:45:48;;;;;;;4.72;1.90;;;21.80;87.20;;;;;;4996805;28;20465;-96
2021/08/06 11:48:14;;;;;;;3.35;1.70;;;21.90;86.00;;;;;;4996157;28;20022;-90
2021/08/06 11:50:58;;;;;;;4.32;1.40;;;22.00;86.00;;;;;;4996332;28;20025;-89
2021/08/06 11:53:26;;;;;;;3.13;1.30;;;22.00;84.20;;;;;;4996447;28;20455;-91
2021/08/06 11:55:54;;;;;;;3.78;1.40;;;22.10;84.70;;;;;;4996342;28;20045;-89
2021/08/06 11:58:40;;;;;;;2.25;1.10;;;22.10;84.40;;;;;;5013320;28;20029;-91
2021/08/06 12:01:18;;;;;;;2.33;1.20;;;22.20;83.80;;;;;;4996279;28;20042;-90
2021/08/06 12:03:49;;;;;;;4.57;1.92;;;22.30;83.20;;;;;;5013329;28;20021;-91
2021/08/06 12:06:16;;;;;;;3.33;1.23;;;22.40;83.20;;;;;;5013450;28;20125;-90
2021/08/06 12:08:42;;;;;;;3.47;1.40;;;22.40;83.00;;;;;;5011739;28;20041;-90
2021/08/06 12:11:09;;;;;;;1.67;1.10;;;22.30;82.40;;;;;;4982201;28;20105;-88
2021/08/06 12:13:40;;;;;;;3.40;1.40;;;22.30;81.90;;;;;;5014499;28;20216;-88
2021/08/06 12:16:14;;;;;;;2.03;1.17;;;22.20;81.40;;;;;;4998731;28;20113;-92
2021/08/06 12:18:49;;;;;;;1.27;1.10;;;22.20;82.70;;;;;;4991979;28;20048;-91
2021/08/06 12:21:22;;;;;;;4.32;1.45;;;22.20;82.70;;;;;;5013005;28;20028;-89
2021/08/06 12:23:59;;;;;;;4.68;1.50;;;22.10;82.70;;;;;;4993195;28;20041;-86
2021/08/06 12:26:33;;;;;;;2.90;1.60;;;21.90;86.70;;;;;;4992500;28;20038;-90
2021/08/06 12:29:11;;;;;;;2.28;0.70;;;21.70;88.40;;;;;;4995779;28;20049;-92
2021/08/06 12:31:49;;;;;;;1.73;1.00;;;21.40;89.20;;;;;;5012838;28;20026;-93
2021/08/06 12:34:25;;;;;;;1.23;0.82;;;21.20;90.30;;;;;;5014271;28;20033;-95
2021/08/06 12:37:06;;;;;;;1.27;0.90;;;21.00;91.40;;;;;;4997831;28;20111;-95
2021/08/06 12:39:51;;;;;;;2.42;1.20;;;20.90;91.60;;;;;;5000097;28;20021;-92
2021/08/06 12:42:31;;;;;;;5.20;0.80;;;20.90;92.40;;;;;;5022329;28;20034;-91
2021/08/06 12:45:05;;;;;;;0.57;0.57;;;20.90;91.00;;;;;;4996263;28;20101;-91
2021/08/06 12:47:47;;;;;;;1.05;0.73;;;21.00;91.50;;;;;;5013821;28;20040;-93
2021/08/06 12:50:34;;;;;;;1.63;0.90;;;21.10;91.70;;;;;;4996410;28;20061;-90
2021/08/06 12:53:07;;;;;;;2.13;1.35;;;21.20;90.30;;;;;;4985270;28;20492;-92
2021/08/06 12:55:34;;;;;;;1.40;0.93;;;21.40;91.00;;;;;;4995914;28;20033;-90
2021/08/06 12:58:04;;;;;;;2.42;1.48;;;21.50;90.50;;;;;;4979985;28;20032;-91